createdAt,value
2019-04-28T00:15:57.461Z,32.10
2019-04-28T00:16:57.431Z,28.60
2019-04-28T00:17:57.415Z,26.00
2019-04-28T00:18:57.387Z,27.60
2019-04-28T00:19:57.364Z,24.50
2019-04-28T00:20:57.341Z,22.80
2019-04-28T00:21:57.320Z,33.10
2019-04-28T00:22:57.300Z,31.30
2019-04-28T00:23:57.271Z,23.90
2019-04-28T00:24:57.251Z,21.50
2019-04-28T00:25:57.228Z,27.60
2019-04-28T00:26:57.205Z,31.30
2019-04-28T00:27:57.190Z,29.90
2019-04-28T00:28:57.164Z,23.80
2019-04-28T00:30:55.775Z,28.60
2019-04-28T00:31:55.751Z,30.10
2019-04-28T00:32:55.730Z,27.60
2019-04-28T00:33:55.710Z,25.00
2019-04-28T00:34:55.682Z,27.90
2019-04-28T00:35:55.759Z,28.50
2019-04-28T00:36:55.638Z,26.00
2019-04-28T00:38:28.823Z,28.40
2019-04-28T00:39:28.851Z,24.50
2019-04-28T00:39:55.571Z,29.00
2019-04-28T00:40:55.548Z,26.80
2019-04-28T00:41:55.522Z,23.80
2019-04-28T00:42:55.499Z,26.80
2019-04-28T00:43:55.479Z,29.60
2019-04-28T00:44:55.485Z,26.30
2019-04-28T00:45:55.439Z,25.40
2019-04-28T00:46:55.408Z,25.10
2019-04-28T00:52:41.856Z,24.60
2019-04-28T00:53:41.222Z,24.80
2019-04-28T00:54:42.041Z,26.00
2019-04-28T00:55:43.795Z,30.50
2019-04-28T00:57:25.321Z,22.30
2019-04-28T00:58:25.294Z,21.20
2019-04-28T01:00:31.031Z,28.50
2019-04-28T01:02:13.414Z,25.10
2019-04-28T01:03:46.597Z,25.50
2019-04-28T01:04:46.980Z,25.40
2019-04-28T01:05:13.342Z,28.90
2019-04-28T01:06:14.041Z,27.40
2019-04-28T01:08:58.548Z,28.00
2019-04-28T01:10:31.732Z,26.90
2019-04-28T01:12:46.523Z,31.30
2019-04-28T01:14:16.772Z,29.40
2019-04-28T01:16:30.176Z,23.10
2019-04-28T01:18:01.867Z,26.90
2019-04-28T01:20:13.777Z,24.20
2019-04-28T01:21:46.961Z,21.50
2019-04-28T01:23:59.834Z,25.20
2019-04-28T01:25:32.010Z,24.30
2019-04-28T01:27:43.971Z,28.80
2019-04-28T01:29:17.156Z,28.70
2019-04-28T03:03:04.087Z,27.00
2019-04-28T03:03:30.997Z,21.90
2019-04-28T03:04:31.038Z,25.00
2019-04-28T03:06:04.020Z,27.00
2019-04-28T03:06:30.885Z,26.80
2019-04-28T03:07:31.443Z,27.40
2019-04-28T03:08:30.835Z,24.80
2019-04-28T03:09:30.878Z,28.80
2019-04-28T03:10:31.330Z,35.90
2019-04-28T03:11:31.456Z,19.50
2019-04-28T03:12:31.331Z,20.00
2019-04-28T03:13:31.371Z,20.40
2019-04-28T03:14:30.761Z,23.10
2019-04-28T03:15:30.794Z,18.40
2019-04-28T03:16:30.629Z,23.80
2019-04-28T03:17:31.147Z,22.30
2019-04-28T03:18:31.594Z,25.60
2019-04-28T03:19:33.660Z,22.60
2019-04-28T03:20:30.816Z,25.00
2019-04-28T03:21:31.278Z,23.10
2019-04-28T03:22:32.961Z,27.50
2019-04-28T03:23:31.209Z,25.50
2019-04-28T03:24:31.552Z,26.30
2019-04-28T03:25:33.345Z,25.00
2019-04-28T03:26:30.969Z,23.00
2019-04-28T03:27:31.047Z,26.10
2019-04-28T03:28:30.823Z,31.20
2019-04-28T03:29:30.554Z,24.10
2019-04-28T03:30:33.806Z,23.50
2019-04-28T03:32:04.029Z,24.20
2019-04-28T03:32:44.637Z,23.90
2019-04-28T03:33:34.025Z,24.80
2019-04-28T03:34:32.214Z,25.20
2019-04-28T03:35:32.670Z,26.50
2019-04-28T03:36:33.221Z,23.80
2019-04-28T03:37:31.597Z,20.90
2019-04-28T03:38:30.983Z,18.40
2019-04-28T03:39:30.322Z,23.30
2019-04-28T03:40:31.002Z,29.50
2019-04-28T03:41:31.080Z,18.90
2019-04-28T03:42:31.407Z,26.20
2019-04-28T03:43:30.629Z,22.60
2019-04-28T03:44:30.934Z,23.70
2019-04-28T03:45:30.685Z,20.60
2019-04-28T03:46:30.559Z,21.10
2019-04-28T03:47:31.133Z,23.20
2019-04-28T03:48:30.844Z,26.90
2019-04-28T03:49:30.740Z,23.10
2019-04-28T03:50:31.362Z,26.90
2019-04-28T03:51:30.861Z,23.50
2019-04-28T03:52:31.855Z,29.80
2019-04-28T03:53:31.200Z,21.90
2019-04-28T03:54:30.366Z,26.00
2019-04-28T03:55:31.711Z,25.80
2019-04-28T03:56:31.025Z,21.80
2019-04-28T03:57:31.397Z,23.10
2019-04-28T03:58:31.035Z,24.50
2019-04-28T03:59:31.138Z,22.90
2019-04-28T04:00:31.210Z,23.20
2019-04-28T04:01:30.490Z,21.20
2019-04-28T04:02:31.134Z,26.50
2019-04-28T04:03:30.488Z,24.60
2019-04-28T04:04:31.996Z,23.30
2019-04-28T04:05:30.644Z,25.30
2019-04-28T04:06:31.083Z,23.50
2019-04-28T04:07:31.197Z,24.40
2019-04-28T04:08:31.012Z,22.30
2019-04-28T04:09:31.200Z,28.90
2019-04-28T04:10:30.615Z,22.50
2019-04-28T04:11:31.177Z,23.00
2019-04-28T04:12:30.967Z,26.90
2019-04-28T04:13:32.730Z,26.40
2019-04-28T04:14:31.045Z,23.40
2019-04-28T04:15:30.903Z,27.70
2019-04-28T04:16:30.795Z,28.30
2019-04-28T04:17:30.508Z,21.10
2019-04-28T04:18:30.848Z,27.10
2019-04-28T04:19:30.407Z,23.00
2019-04-28T04:20:31.035Z,25.70
2019-04-28T04:21:31.042Z,25.40
2019-04-28T04:22:31.451Z,25.10
2019-04-28T04:23:30.891Z,24.20
2019-04-28T04:24:30.627Z,24.30
2019-04-28T04:25:31.130Z,24.80
2019-04-28T04:26:32.851Z,23.70
2019-04-28T04:27:30.918Z,26.70
2019-04-28T04:28:30.415Z,20.20
2019-04-28T04:29:30.956Z,24.30
2019-04-28T04:30:31.120Z,17.50
2019-04-28T04:31:31.476Z,19.60
2019-04-28T04:32:30.425Z,22.00
2019-04-28T04:33:31.064Z,22.70
2019-04-28T04:34:30.209Z,25.40
2019-04-28T04:35:31.398Z,24.30
2019-04-28T04:36:31.060Z,26.30
2019-04-28T04:37:30.790Z,21.00
2019-04-28T04:38:30.969Z,25.10
2019-04-28T04:39:30.325Z,22.90
2019-04-28T04:40:31.326Z,27.20
2019-04-28T04:41:30.557Z,24.20
2019-04-28T04:42:30.694Z,25.00
2019-04-28T04:43:30.864Z,22.10
2019-04-28T04:44:30.873Z,28.40
2019-04-28T04:45:30.498Z,29.40
2019-04-28T04:46:31.136Z,26.10
2019-04-28T04:47:32.451Z,30.40
2019-04-28T04:48:31.048Z,23.40
2019-04-28T04:49:31.467Z,20.80
2019-04-28T04:50:31.056Z,26.60
2019-04-28T04:51:30.410Z,27.60
2019-04-28T04:52:30.393Z,24.30
2019-04-28T04:53:30.690Z,22.70
2019-04-28T04:54:32.062Z,26.40
2019-04-28T04:55:30.663Z,28.00
2019-04-28T04:56:30.165Z,24.20
2019-04-28T04:57:32.230Z,30.60
2019-04-28T04:58:30.371Z,23.80
2019-04-28T04:59:30.182Z,18.70
2019-04-28T05:00:28.179Z,21.00
2019-04-28T05:01:30.303Z,27.70
2019-04-28T05:02:30.573Z,25.20
2019-04-28T05:03:29.510Z,22.20
2019-04-28T05:04:29.706Z,25.40
2019-04-28T05:05:28.070Z,25.90
2019-04-28T05:06:29.700Z,26.70
2019-04-28T05:07:29.672Z,32.80
2019-04-28T05:08:27.994Z,22.50
2019-04-28T05:09:29.339Z,23.50
2019-04-28T05:10:27.946Z,23.90
2019-04-28T05:11:29.871Z,23.10
2019-04-28T05:12:27.902Z,23.90
2019-04-28T05:13:27.879Z,25.90
2019-04-28T05:14:29.802Z,27.20
2019-04-28T05:15:27.836Z,29.90
2019-04-28T05:16:29.672Z,24.40
2019-04-28T05:17:27.798Z,19.80
2019-04-28T05:18:29.610Z,21.90
2019-04-28T05:19:27.741Z,30.40
2019-04-28T05:20:27.719Z,25.00
2019-04-28T05:21:31.153Z,24.00
2019-04-28T05:22:27.674Z,26.70
2019-04-28T05:23:27.650Z,24.30
2019-04-28T05:24:27.635Z,28.30
2019-04-28T05:25:30.915Z,25.30
2019-04-28T05:26:27.583Z,24.60
2019-04-28T05:27:27.559Z,24.50
2019-04-28T05:28:30.575Z,23.20
2019-04-28T05:29:28.212Z,24.40
2019-04-28T05:30:27.498Z,22.90
2019-04-28T05:31:27.470Z,23.20
2019-04-28T05:32:41.630Z,27.30
2019-04-28T05:33:30.648Z,26.80
2019-04-28T05:34:29.522Z,26.40
2019-04-28T05:35:29.322Z,27.40
2019-04-28T05:36:27.384Z,27.50
2019-04-28T05:37:27.341Z,20.10
2019-04-28T05:38:27.315Z,27.00
2019-04-28T05:39:27.292Z,23.10
2019-04-28T05:40:27.268Z,24.40
2019-04-28T05:41:27.304Z,27.10
2019-04-28T05:42:27.220Z,25.50
2019-04-28T05:43:27.198Z,24.30
2019-04-28T05:44:27.176Z,20.10
2019-04-28T05:45:27.289Z,19.30
2019-04-28T05:46:27.134Z,28.10
2019-04-28T05:47:27.116Z,25.90
2019-04-28T05:48:27.090Z,24.00
2019-04-28T05:49:27.068Z,22.70
2019-04-28T05:50:27.042Z,25.10
2019-04-28T05:51:27.019Z,26.00
2019-04-28T05:52:27.009Z,27.30
2019-04-28T05:53:26.980Z,27.00
2019-04-28T05:54:26.952Z,26.00
2019-04-28T05:56:10.548Z,25.90
2019-04-28T06:01:20.686Z,22.90
2019-04-28T06:02:21.880Z,23.50
2019-04-28T06:03:20.596Z,22.90
2019-04-28T06:04:23.186Z,26.50
2019-04-28T06:05:20.544Z,25.00
2019-04-28T06:06:20.534Z,25.30
2019-04-28T06:10:39.796Z,29.40
2019-04-28T06:15:49.685Z,28.00
2019-04-28T06:16:48.051Z,24.70
2019-04-28T06:17:49.780Z,22.20
2019-04-28T06:18:49.967Z,30.00
2019-04-28T06:19:50.251Z,24.80
2019-04-28T06:20:49.678Z,20.70
2019-04-28T06:21:47.940Z,22.60
2019-04-28T06:22:47.914Z,25.40
2019-04-28T06:23:47.895Z,18.50
2019-04-28T06:24:47.884Z,26.80
2019-04-28T06:25:47.908Z,24.60
2019-04-28T06:26:47.831Z,23.90
2019-04-28T06:27:47.810Z,25.70
2019-04-28T06:28:47.789Z,26.10
2019-04-28T06:29:47.771Z,21.60
2019-04-28T06:30:47.756Z,25.40
2019-04-28T06:31:47.729Z,25.80
2019-04-28T06:32:47.707Z,19.80
2019-04-28T06:33:47.678Z,19.30
2019-04-28T06:34:47.656Z,18.40
2019-04-28T06:35:47.634Z,18.80
2019-04-28T06:36:47.622Z,24.70
2019-04-28T06:37:47.594Z,23.40
2019-04-28T06:38:47.577Z,26.00
2019-04-28T06:39:47.560Z,23.80
2019-04-28T06:40:47.526Z,24.00
2019-04-28T06:41:47.506Z,22.60
2019-04-28T06:42:47.491Z,26.80
2019-04-28T06:43:47.471Z,20.50
2019-04-28T06:44:47.446Z,21.80
2019-04-28T06:45:47.423Z,19.50
2019-04-28T06:46:47.404Z,28.60
2019-04-28T06:47:47.384Z,24.50
2019-04-28T06:48:47.368Z,21.10
2019-04-28T06:49:47.344Z,19.80
2019-04-28T06:50:47.318Z,20.10
2019-04-28T06:51:47.335Z,25.70
2019-04-28T06:52:47.278Z,24.80
2019-04-28T06:53:47.268Z,27.60
2019-04-28T06:54:47.235Z,21.50
2019-04-28T06:55:47.216Z,24.20
2019-04-28T06:56:47.198Z,19.70
2019-04-28T06:57:47.186Z,22.30
2019-04-28T06:58:58.460Z,25.10
2019-04-28T06:59:47.141Z,25.70
2019-04-28T07:00:47.111Z,19.60
2019-04-28T07:01:47.091Z,21.60
2019-04-28T07:02:47.069Z,22.60
2019-04-28T07:03:47.051Z,25.60
2019-04-28T07:04:47.037Z,23.70
2019-04-28T07:05:47.011Z,24.10
2019-04-28T07:06:46.990Z,22.90
2019-04-28T07:07:47.001Z,23.80
2019-04-28T07:08:46.948Z,20.90
2019-04-28T07:09:46.931Z,23.00
2019-04-28T07:10:46.910Z,25.20
2019-04-28T07:11:46.888Z,24.00
2019-04-28T07:12:46.870Z,23.10
2019-04-28T07:13:46.857Z,21.00
2019-04-28T07:14:46.829Z,23.80
2019-04-28T07:15:46.990Z,23.10
2019-04-28T07:16:46.788Z,24.70
2019-04-28T07:17:46.768Z,24.20
2019-04-28T07:18:46.761Z,21.60
2019-04-28T07:19:46.731Z,26.80
2019-04-28T07:21:40.394Z,18.30
2019-04-28T07:22:40.381Z,23.00
2019-04-28T07:23:40.364Z,25.80
2019-04-28T07:24:40.337Z,26.70
2019-04-28T07:25:40.314Z,22.00
2019-04-28T07:26:40.297Z,20.10
2019-04-28T07:27:40.276Z,23.70
2019-04-28T07:29:13.469Z,24.30
2019-04-28T07:29:40.241Z,25.90
2019-04-28T07:30:40.217Z,25.20
2019-04-28T07:31:40.199Z,21.40
2019-04-28T07:33:13.397Z,24.90
2019-04-28T07:34:13.369Z,28.80
2019-04-28T07:34:40.148Z,23.80
2019-04-28T07:35:40.122Z,23.40
2019-04-28T07:38:25.751Z,27.90
2019-04-28T07:39:25.732Z,25.40
2019-04-28T07:40:25.709Z,23.70
2019-04-28T07:41:25.697Z,27.10
2019-04-28T07:42:25.673Z,27.00
2019-04-28T07:43:25.653Z,24.80
2019-04-28T07:44:25.646Z,26.00
2019-04-28T07:45:58.825Z,24.80
2019-04-28T07:46:25.611Z,25.10
2019-04-28T07:47:58.785Z,20.90
2019-04-28T07:48:58.776Z,23.60
2019-04-28T07:49:58.767Z,22.00
2019-04-28T07:50:25.628Z,24.60
2019-04-28T07:53:11.156Z,26.70
2019-04-28T09:44:26.588Z,14.20
2019-04-28T09:44:53.384Z,10.20
2019-04-28T09:45:53.366Z,16.00
2019-04-28T09:46:53.318Z,13.10
2019-04-28T09:47:53.302Z,12.90
2019-04-28T09:48:53.279Z,14.00
2019-04-28T09:49:53.266Z,15.90
2019-04-28T09:50:54.666Z,14.60
2019-04-28T09:51:53.219Z,17.40
2019-04-28T09:52:53.200Z,14.50
2019-04-28T09:53:53.188Z,16.90
2019-04-28T09:54:53.169Z,13.70
2019-04-28T09:55:53.150Z,14.50
2019-04-28T09:56:56.898Z,15.40
2019-04-28T09:57:54.832Z,13.60
2019-04-28T09:58:53.082Z,13.60
2019-04-28T09:59:53.063Z,13.90
2019-04-28T10:00:53.043Z,14.30
2019-04-28T10:01:53.027Z,10.90
2019-04-28T10:02:53.014Z,12.90
2019-04-28T10:03:53.049Z,12.20
2019-04-28T10:04:52.969Z,13.20
2019-04-28T10:05:52.951Z,13.00
2019-04-28T10:06:52.932Z,14.60
2019-04-28T10:07:52.919Z,12.60
2019-04-28T10:08:52.902Z,13.90
2019-04-28T10:09:52.900Z,16.00
2019-04-28T10:10:52.867Z,12.70
2019-04-28T10:11:52.844Z,13.60
2019-04-28T10:12:52.827Z,13.00
2019-04-28T10:13:52.809Z,14.10
2019-04-28T10:14:52.796Z,12.70
2019-04-28T10:15:52.776Z,17.00
2019-04-28T10:16:52.760Z,15.60
2019-04-28T10:17:54.160Z,13.00
2019-04-28T10:18:52.720Z,13.70
2019-04-28T10:19:52.724Z,12.80
2019-04-28T10:20:52.692Z,13.50
2019-04-28T10:21:52.686Z,13.50
2019-04-28T10:22:52.670Z,17.30
2019-04-28T10:23:52.635Z,15.00
2019-04-28T10:24:52.618Z,14.60
2019-04-28T10:25:52.603Z,13.40
2019-04-28T10:26:52.587Z,15.30
2019-04-28T10:27:52.577Z,15.90
2019-04-28T10:28:52.548Z,15.10
2019-04-28T10:29:55.151Z,16.50
2019-04-28T10:32:07.038Z,15.10
2019-04-28T10:35:54.758Z,16.80
2019-04-28T10:37:25.466Z,18.20
2019-04-28T10:37:52.846Z,16.40
2019-04-28T10:38:52.030Z,18.40
2019-04-28T10:39:52.010Z,20.00
2019-04-28T10:42:06.187Z,16.10
2019-04-28T10:45:43.262Z,19.40
2019-04-28T10:47:16.455Z,19.10
2019-04-28T10:47:43.224Z,15.70
2019-04-28T10:48:43.259Z,16.00
2019-04-28T10:49:43.201Z,14.70
2019-04-28T10:52:59.649Z,14.20
2019-04-28T10:54:31.620Z,18.00
2019-04-28T10:54:58.409Z,14.40
2019-04-28T10:56:31.601Z,17.20
2019-04-28T10:58:43.524Z,19.30
2019-04-28T11:00:16.715Z,19.40
2019-04-28T11:00:43.489Z,15.50
2019-04-28T11:03:28.628Z,15.00
2019-04-28T11:05:08.244Z,17.30
2019-04-28T11:05:28.600Z,13.10
2019-04-28T11:08:13.786Z,12.00
2019-04-28T11:10:48.920Z,12.30
2019-04-28T11:12:22.114Z,8.50
2019-04-28T11:12:48.885Z,9.40
2019-04-28T11:49:23.004Z,10.40
2019-04-28T11:49:49.775Z,11.00
2019-04-28T11:50:49.772Z,10.20
2019-04-28T11:54:08.065Z,11.30
2019-04-28T11:55:08.074Z,9.90
2019-04-28T11:57:53.093Z,10.50
2019-04-28T11:58:53.082Z,11.00
2019-04-28T12:01:38.127Z,13.50
2019-04-28T12:02:38.108Z,14.50
2019-04-28T13:14:58.043Z,18.50
2019-04-28T14:05:45.301Z,12.40
2019-04-28T14:05:52.830Z,11.30
2019-04-28T14:06:52.828Z,15.50
2019-04-28T14:07:52.813Z,15.60
2019-04-28T14:08:52.783Z,15.60
2019-04-28T14:09:52.777Z,11.60
2019-04-28T14:10:52.753Z,11.50
2019-04-28T14:11:52.734Z,13.60
2019-04-28T14:12:52.721Z,17.30
2019-04-28T14:13:52.702Z,14.90
2019-04-28T14:14:52.704Z,14.60
2019-04-28T14:15:52.659Z,12.80
2019-04-28T14:16:52.654Z,14.20
2019-04-28T14:17:52.678Z,18.90
2019-04-28T14:18:52.657Z,12.80
2019-04-28T14:19:52.614Z,11.60
2019-04-28T14:20:52.588Z,14.00
2019-04-28T14:21:52.613Z,14.00
2019-04-28T14:22:52.541Z,12.20
2019-04-28T14:23:52.533Z,11.70
2019-04-28T14:24:52.568Z,13.90
2019-04-28T14:25:52.559Z,13.90
2019-04-28T14:26:52.475Z,8.70
2019-04-28T14:27:52.458Z,12.00
2019-04-28T14:28:52.450Z,12.70
2019-04-28T14:29:52.421Z,11.30
2019-04-28T14:30:52.408Z,7.70
2019-04-28T14:31:52.461Z,11.30
2019-04-28T14:32:52.386Z,11.40
2019-04-28T14:33:52.371Z,9.90
2019-04-28T14:34:52.353Z,10.30
2019-04-28T14:35:52.326Z,10.10
2019-04-28T14:36:52.310Z,10.40
2019-04-28T14:37:52.295Z,12.90
2019-04-28T14:38:52.285Z,13.20
2019-04-28T14:39:52.286Z,10.60
2019-04-28T14:40:52.323Z,10.40
2019-04-28T14:41:52.222Z,10.10
2019-04-28T14:42:52.203Z,10.30
2019-04-28T14:43:52.184Z,10.50
2019-04-28T14:44:52.160Z,13.80
2019-04-28T14:45:52.169Z,11.40
2019-04-28T14:46:52.164Z,11.00
2019-04-28T14:47:52.130Z,11.30
2019-04-28T14:48:52.106Z,9.90
2019-04-28T14:49:52.139Z,10.70
2019-04-28T14:50:52.066Z,12.10
2019-04-28T14:51:52.049Z,12.70
2019-04-28T14:52:52.023Z,9.20
2019-04-28T14:53:52.006Z,11.30
2019-04-28T14:54:51.990Z,10.60
2019-04-28T14:55:51.992Z,14.90
2019-04-28T14:56:51.959Z,11.50
2019-04-28T14:57:52.021Z,11.30
2019-04-28T14:58:51.927Z,10.90
2019-04-28T14:59:51.952Z,10.90
2019-04-28T15:00:51.898Z,15.00
2019-04-28T15:01:51.879Z,13.90
2019-04-28T15:02:51.911Z,14.50
2019-04-28T15:03:51.834Z,13.20
2019-04-28T15:04:51.817Z,10.70
2019-04-28T15:05:51.810Z,13.20
2019-04-28T15:06:55.775Z,13.70
2019-04-28T15:07:51.802Z,11.70
2019-04-28T15:08:51.844Z,13.00
2019-04-28T15:09:51.811Z,10.60
2019-04-28T15:10:51.727Z,11.70
2019-04-28T15:11:51.714Z,13.90
2019-04-28T15:12:51.686Z,14.00
2019-04-28T15:13:51.679Z,14.00
2019-04-28T15:14:51.700Z,13.10
2019-04-28T15:15:51.647Z,10.40
2019-04-28T15:16:51.663Z,14.30
2019-04-28T15:17:51.666Z,14.90
2019-04-28T15:18:51.578Z,11.60
2019-04-28T15:19:51.575Z,11.10
2019-04-28T15:20:51.552Z,13.40
2019-04-28T15:21:54.470Z,13.90
2019-04-28T15:22:51.512Z,15.70
2019-04-28T15:23:51.502Z,13.30
2019-04-28T15:24:51.473Z,12.20
2019-04-28T15:25:51.453Z,14.50
2019-04-28T15:26:51.441Z,17.30
2019-04-28T15:27:51.419Z,15.40
2019-04-28T15:28:51.405Z,15.00
2019-04-28T15:29:51.386Z,15.70
2019-04-28T15:30:51.372Z,19.30
2019-04-28T15:31:51.351Z,17.80
2019-04-28T15:32:51.337Z,18.00
2019-04-28T15:33:51.323Z,17.20
2019-04-28T15:34:51.300Z,13.30
2019-04-28T15:35:51.277Z,14.70
2019-04-28T15:36:51.268Z,14.10
2019-04-28T15:37:51.252Z,15.40
2019-04-28T15:38:51.230Z,14.90
2019-04-28T15:39:51.207Z,14.20
2019-04-28T15:40:51.198Z,14.00
2019-04-28T15:41:51.174Z,17.10
2019-04-28T15:42:51.154Z,16.20
2019-04-28T15:43:51.148Z,13.50
2019-04-28T15:44:51.128Z,15.60
2019-04-28T15:45:51.104Z,17.80
2019-04-28T15:46:51.084Z,20.20
2019-04-28T15:47:51.072Z,18.70
2019-04-28T15:48:51.067Z,19.80
2019-04-28T15:49:51.033Z,19.70
2019-04-28T15:50:51.012Z,13.80
2019-04-28T15:51:51.000Z,14.80
2019-04-28T15:52:51.006Z,15.80
2019-04-28T15:53:50.961Z,15.30
2019-04-28T15:54:50.954Z,22.60
2019-04-28T15:55:50.940Z,15.80
2019-04-28T15:56:50.906Z,14.30
2019-04-28T15:57:50.899Z,14.60
2019-04-28T15:58:50.876Z,12.70
2019-04-28T15:59:50.846Z,13.90
2019-04-28T16:00:50.849Z,17.00
2019-04-28T16:01:50.826Z,14.80
2019-04-28T16:02:50.793Z,14.30
2019-04-28T16:03:50.776Z,15.30
2019-04-28T16:04:50.771Z,13.80
2019-04-28T16:05:50.746Z,15.80
2019-04-28T16:06:50.742Z,18.40
2019-04-28T16:07:50.699Z,14.80
2019-04-28T16:08:50.702Z,15.30
2019-04-28T16:09:50.687Z,15.90
2019-04-28T16:10:50.644Z,14.60
2019-04-28T16:11:50.633Z,15.10
2019-04-28T16:12:50.624Z,14.70
2019-04-28T16:13:50.598Z,18.10
2019-04-28T16:14:50.577Z,12.10
2019-04-28T16:15:50.548Z,16.10
2019-04-28T16:16:50.531Z,16.10
2019-04-28T16:17:50.528Z,15.00
2019-04-28T16:18:50.500Z,14.30
2019-04-28T16:19:50.488Z,13.60
2019-04-28T16:20:50.458Z,14.00
2019-04-28T16:21:50.763Z,13.90
2019-04-28T16:22:50.827Z,13.20
2019-04-28T16:23:50.397Z,13.50
2019-04-28T16:24:50.377Z,13.40
2019-04-28T16:25:50.372Z,12.90
2019-04-28T16:26:50.337Z,10.40
2019-04-28T16:27:50.340Z,11.30
2019-04-28T16:28:50.299Z,13.00
2019-04-28T16:29:50.285Z,16.00
2019-04-28T16:30:50.263Z,13.10
2019-04-28T16:31:50.254Z,14.00
2019-04-28T16:32:50.225Z,11.70
2019-04-28T16:33:50.254Z,11.30
2019-04-28T16:34:50.188Z,12.00
2019-04-28T16:35:50.186Z,13.70
2019-04-28T16:36:50.149Z,12.30
2019-04-28T16:37:50.142Z,12.90
2019-04-28T16:38:50.166Z,14.50
2019-04-28T16:39:50.089Z,17.20
2019-04-28T16:40:50.066Z,15.60
2019-04-28T16:41:50.052Z,13.60
2019-04-28T16:42:50.038Z,13.70
2019-04-28T16:44:54.068Z,13.40
2019-04-28T16:45:54.039Z,15.60
2019-04-28T16:46:54.024Z,16.50
2019-04-28T16:47:54.003Z,16.50
2019-04-28T16:48:53.989Z,15.20
2019-04-28T16:49:53.981Z,15.10
2019-04-28T16:50:53.951Z,15.70
2019-04-28T16:51:53.923Z,13.20
2019-04-28T16:52:53.910Z,14.20
2019-04-28T16:53:53.893Z,15.80
2019-04-28T16:54:53.868Z,17.30
2019-04-28T16:55:53.855Z,16.50
2019-04-28T16:56:53.844Z,14.50
2019-04-28T16:57:53.809Z,14.70
2019-04-28T16:58:53.811Z,16.20
2019-04-28T16:59:53.772Z,14.40
2019-04-28T17:00:53.746Z,14.60
2019-04-28T17:01:53.748Z,13.20
2019-04-28T17:02:53.762Z,12.70
2019-04-28T17:03:53.687Z,13.80
2019-04-28T17:04:53.688Z,10.10
2019-04-28T17:05:53.661Z,14.00
2019-04-28T17:06:53.644Z,13.50
2019-04-28T17:07:53.629Z,13.60
2019-04-28T17:08:56.821Z,14.30
2019-04-28T17:09:53.574Z,14.30
2019-04-28T17:10:53.545Z,14.30
2019-04-28T17:11:53.528Z,14.00
2019-04-28T17:12:53.510Z,12.30
2019-04-28T17:13:53.501Z,16.80
2019-04-28T17:14:53.466Z,13.70
2019-04-28T17:15:53.469Z,14.50
2019-04-28T17:16:53.425Z,14.70
2019-04-28T17:17:53.413Z,14.90
2019-04-28T17:18:53.386Z,12.90
2019-04-28T17:19:53.367Z,14.10
2019-04-28T17:20:55.053Z,14.30
2019-04-28T17:21:53.333Z,12.70
2019-04-28T17:22:53.311Z,13.20
2019-04-28T17:23:53.287Z,10.80
2019-04-28T17:24:53.284Z,14.40
2019-04-28T17:25:53.250Z,13.30
2019-04-28T17:26:53.234Z,17.30
2019-04-28T17:27:53.207Z,13.50
2019-04-28T17:28:53.184Z,16.10
2019-04-28T17:29:53.182Z,15.40
2019-04-28T17:30:53.144Z,16.70
2019-04-28T17:31:53.132Z,11.90
2019-04-28T17:32:53.102Z,12.50
2019-04-28T17:33:53.088Z,12.60
2019-04-28T17:34:53.075Z,11.60
2019-04-28T17:35:53.044Z,16.10
2019-04-28T17:36:53.033Z,11.20
2019-04-28T17:38:06.006Z,14.80
2019-04-28T17:38:56.626Z,12.80
2019-04-28T17:39:52.964Z,14.60
2019-04-28T17:40:52.957Z,15.90
2019-04-28T17:41:52.929Z,13.80
2019-04-28T17:42:52.903Z,12.00
2019-04-28T17:43:52.886Z,12.30
2019-04-28T17:44:52.920Z,13.00
2019-04-28T17:45:52.863Z,13.40
2019-04-28T17:46:52.823Z,13.90
2019-04-28T17:47:52.807Z,12.90
2019-04-28T17:48:52.793Z,14.30
2019-04-28T17:49:52.782Z,12.40
2019-04-28T17:50:52.759Z,12.10
2019-04-28T17:51:52.731Z,13.70
2019-04-28T17:52:52.707Z,13.80
2019-04-28T17:53:52.677Z,14.50
2019-04-28T17:54:52.666Z,17.60
2019-04-28T17:55:52.643Z,18.00
2019-04-28T17:56:52.618Z,18.70
2019-04-28T17:57:52.621Z,17.30
2019-04-28T17:58:52.587Z,12.60
2019-04-28T17:59:52.639Z,17.10
2019-04-28T18:00:52.591Z,18.20
2019-04-28T18:01:52.526Z,17.50
2019-04-28T18:02:52.510Z,17.00
2019-04-28T18:03:52.486Z,14.50
2019-04-28T18:04:52.468Z,15.40
2019-04-28T18:05:52.489Z,18.80
2019-04-28T18:06:52.424Z,17.00
2019-04-28T18:07:52.408Z,25.70
2019-04-28T18:08:52.384Z,18.90
2019-04-28T18:09:52.354Z,14.90
2019-04-28T18:10:52.334Z,18.60
2019-04-28T18:11:52.335Z,15.60
2019-04-28T18:13:00.261Z,18.20
2019-04-28T18:13:52.385Z,14.30
2019-04-28T18:14:52.256Z,14.90
2019-04-28T18:15:52.247Z,15.00
2019-04-28T18:16:52.228Z,17.90
2019-04-28T18:17:52.213Z,11.90
2019-04-28T18:18:52.184Z,14.30
2019-04-28T18:19:52.173Z,16.10
2019-04-28T18:20:52.235Z,16.90
2019-04-28T18:21:52.116Z,17.30
2019-04-28T18:22:52.088Z,17.00
2019-04-28T18:23:52.071Z,18.30
2019-04-28T18:24:52.048Z,15.70
2019-04-28T18:25:52.035Z,15.50
2019-04-28T18:26:52.008Z,12.20
2019-04-28T18:27:52.008Z,19.20
2019-04-28T18:28:51.982Z,15.00
2019-04-28T18:29:51.959Z,18.60
2019-04-28T18:30:51.928Z,14.40
2019-04-28T18:31:51.914Z,14.10
2019-04-28T18:32:51.898Z,14.20
2019-04-28T18:33:51.869Z,15.80
2019-04-28T18:34:51.859Z,13.10
2019-04-28T18:35:51.840Z,17.10
2019-04-28T18:37:35.738Z,12.80
2019-04-28T18:38:35.710Z,13.10
2019-04-28T18:39:35.690Z,13.10
2019-04-28T18:40:35.667Z,15.00
2019-04-28T18:41:35.651Z,16.30
2019-04-28T18:42:35.726Z,14.00
2019-04-28T18:44:08.824Z,15.80
2019-04-28T18:44:35.581Z,16.40
2019-04-28T18:46:08.775Z,19.30
2019-04-28T18:47:08.802Z,15.20
2019-04-28T18:48:08.733Z,15.40
2019-04-28T18:48:36.280Z,15.60
2019-04-28T18:50:08.685Z,13.90
2019-04-28T18:50:35.464Z,15.60
2019-04-28T18:51:35.445Z,15.20
2019-04-28T18:52:35.443Z,16.00
2019-04-28T18:53:35.394Z,21.00
2019-04-28T18:54:35.380Z,18.30
2019-04-28T18:55:35.367Z,17.90
2019-04-28T18:58:55.456Z,18.60
2019-04-28T18:59:24.312Z,15.90
2019-04-28T19:00:55.417Z,17.30
2019-04-28T19:01:22.193Z,15.20
2019-04-28T19:02:22.169Z,19.90
2019-04-28T19:03:22.196Z,14.40
2019-04-28T19:04:22.145Z,16.10
2019-04-28T19:05:22.103Z,18.80
2019-04-28T19:07:04.866Z,17.90
2019-04-28T19:07:22.068Z,17.00
2019-04-28T19:08:22.044Z,20.50
2019-04-28T19:09:22.021Z,19.60
2019-04-28T19:10:22.017Z,19.10
2019-04-28T19:11:22.052Z,14.40
2019-04-28T19:12:21.955Z,15.90
2019-04-28T19:13:21.934Z,18.10
2019-04-28T19:14:21.928Z,18.40
2019-04-28T19:15:21.893Z,22.50
2019-04-28T19:16:21.869Z,18.40
2019-04-28T20:41:40.521Z,32.40
2019-04-28T20:43:07.416Z,35.60
2019-04-28T20:44:07.455Z,27.50
2019-04-28T20:44:34.164Z,29.00
2019-04-28T20:45:34.151Z,25.90
2019-04-28T20:48:19.326Z,25.80
2019-04-28T21:03:52.875Z,21.10
2019-04-28T21:04:52.872Z,21.80
2019-04-28T21:05:52.824Z,20.50
2019-04-28T21:06:19.603Z,17.30
2019-04-28T21:07:25.833Z,20.00
2019-04-28T21:08:25.821Z,20.80
2019-04-28T21:09:19.524Z,19.50
2019-04-28T21:10:19.511Z,19.00
2019-04-28T21:11:19.482Z,24.00
2019-04-28T21:12:19.459Z,22.20
2019-04-28T21:13:19.449Z,24.50
2019-04-28T21:14:20.787Z,20.90
2019-04-28T21:15:19.399Z,22.50
2019-04-28T21:16:19.371Z,21.10
2019-04-28T21:17:19.347Z,23.70
2019-04-28T21:18:19.327Z,21.60
2019-04-28T21:19:19.304Z,19.40
2019-04-28T21:20:19.343Z,19.50
2019-04-28T21:21:19.266Z,20.80
2019-04-28T21:22:19.237Z,23.10
2019-04-28T21:23:19.224Z,18.20
2019-04-28T21:24:19.197Z,22.20
2019-04-28T21:25:19.184Z,20.90
2019-04-28T21:26:19.153Z,20.30
2019-04-28T21:27:19.129Z,22.30
2019-04-28T21:28:19.110Z,22.00
2019-04-28T21:29:19.085Z,22.70
2019-04-28T21:30:19.074Z,22.90
2019-04-28T21:31:19.062Z,20.80
2019-04-28T21:32:19.020Z,18.90
2019-04-28T21:33:19.013Z,24.00
2019-04-28T21:34:18.989Z,24.70
2019-04-28T21:35:18.954Z,18.80
2019-04-28T21:36:18.943Z,21.30
2019-04-28T21:37:18.908Z,24.40
2019-04-28T21:38:18.890Z,20.10
2019-04-28T21:39:18.868Z,22.40
2019-04-28T21:40:18.843Z,20.90
2019-04-28T21:41:18.818Z,18.60
2019-04-28T21:42:18.795Z,23.90
2019-04-28T21:43:18.773Z,22.00
2019-04-28T21:44:18.762Z,21.30
2019-04-28T21:45:18.747Z,24.90
2019-04-28T21:46:18.713Z,24.70
2019-04-28T21:47:18.694Z,27.20